sensor_id;sensor_type;location;lat;lon;timestamp;temperature;humidity
42989;DHT22;28622;43.716;20.668;2023-03-21T00:00:43;11.20;99.90
42989;DHT22;28622;43.716;20.668;2023-03-21T00:03:09;11.10;99.90
42989;DHT22;28622;43.716;20.668;2023-03-21T00:05:39;11.10;99.90
42989;DHT22;28622;43.716;20.668;2023-03-21T00:08:06;11.00;99.90
42989;DHT22;28622;43.716;20.668;2023-03-21T00:10:31;11.00;99.90
42989;DHT22;28622;43.716;20.668;2023-03-21T00:12:57;10.90;99.90
42989;DHT22;28622;43.716;20.668;2023-03-21T00:15:24;10.80;99.90
42989;DHT22;28622;43.716;20.668;2023-03-21T00:17:55;10.80;99.90
42989;DHT22;28622;43.716;20.668;2023-03-21T00:20:29;10.70;99.90
42989;DHT22;28622;43.716;20.668;2023-03-21T00:22:55;10.70;99.90
42989;DHT22;28622;43.716;20.668;2023-03-21T00:25:21;10.70;99.90
42989;DHT22;28622;43.716;20.668;2023-03-21T00:27:46;10.60;99.90
42989;DHT22;28622;43.716;20.668;2023-03-21T00:30:12;10.50;99.90
42989;DHT22;28622;43.716;20.668;2023-03-21T00:32:38;10.50;99.90
42989;DHT22;28622;43.716;20.668;2023-03-21T00:35:05;10.40;99.90
42989;DHT22;28622;43.716;20.668;2023-03-21T00:37:31;10.40;99.90
42989;DHT22;28622;43.716;20.668;2023-03-21T00:39:57;10.30;99.90
42989;DHT22;28622;43.716;20.668;2023-03-21T00:42:23;10.30;99.90
42989;DHT22;28622;43.716;20.668;2023-03-21T00:44:48;10.20;99.90
42989;DHT22;28622;43.716;20.668;2023-03-21T00:47:14;10.20;99.90
42989;DHT22;28622;43.716;20.668;2023-03-21T00:49:40;10.10;99.90
42989;DHT22;28622;43.716;20.668;2023-03-21T00:52:08;10.00;99.90
42989;DHT22;28622;43.716;20.668;2023-03-21T00:54:37;10.00;99.90
42989;DHT22;28622;43.716;20.668;2023-03-21T00:57:03;10.00;99.90
42989;DHT22;28622;43.716;20.668;2023-03-21T00:59:30;9.90;99.90
42989;DHT22;28622;43.716;20.668;2023-03-21T01:01:56;9.80;99.90
42989;DHT22;28622;43.716;20.668;2023-03-21T01:04:25;9.80;99.90
42989;DHT22;28622;43.716;20.668;2023-03-21T01:06:52;9.80;99.90
42989;DHT22;28622;43.716;20.668;2023-03-21T01:09:20;9.70;99.90
42989;DHT22;28622;43.716;20.668;2023-03-21T01:11:47;9.70;99.90
42989;DHT22;28622;43.716;20.668;2023-03-21T01:14:15;9.70;99.90
42989;DHT22;28622;43.716;20.668;2023-03-21T01:16:42;9.60;99.90
42989;DHT22;28622;43.716;20.668;2023-03-21T01:19:12;9.50;99.90
42989;DHT22;28622;43.716;20.668;2023-03-21T01:21:38;9.50;99.90
42989;DHT22;28622;43.716;20.668;2023-03-21T01:24:05;9.50;99.90
42989;DHT22;28622;43.716;20.668;2023-03-21T01:26:30;9.40;99.90
42989;DHT22;28622;43.716;20.668;2023-03-21T01:28:56;9.40;99.90
42989;DHT22;28622;43.716;20.668;2023-03-21T01:31:22;9.40;99.90
42989;DHT22;28622;43.716;20.668;2023-03-21T01:33:48;9.30;99.90
42989;DHT22;28622;43.716;20.668;2023-03-21T01:36:18;9.30;99.90
42989;DHT22;28622;43.716;20.668;2023-03-21T01:38:46;9.30;99.90
42989;DHT22;28622;43.716;20.668;2023-03-21T01:43:52;9.30;99.90
42989;DHT22;28622;43.716;20.668;2023-03-21T01:46:44;9.20;99.90
42989;DHT22;28622;43.716;20.668;2023-03-21T01:49:34;9.30;99.90
42989;DHT22;28622;43.716;20.668;2023-03-21T01:52:06;9.20;99.90
42989;DHT22;28622;43.716;20.668;2023-03-21T01:54:36;9.20;99.90
42989;DHT22;28622;43.716;20.668;2023-03-21T01:57:09;9.30;99.90
42989;DHT22;28622;43.716;20.668;2023-03-21T01:59:45;9.30;99.90
42989;DHT22;28622;43.716;20.668;2023-03-21T02:02:19;9.20;99.90
42989;DHT22;28622;43.716;20.668;2023-03-21T02:04:48;9.20;99.90
42989;DHT22;28622;43.716;20.668;2023-03-21T02:07:39;9.20;99.90
42989;DHT22;28622;43.716;20.668;2023-03-21T02:10:11;9.30;99.90
42989;DHT22;28622;43.716;20.668;2023-03-21T02:12:38;9.30;99.90
42989;DHT22;28622;43.716;20.668;2023-03-21T02:15:05;9.30;99.90
42989;DHT22;28622;43.716;20.668;2023-03-21T02:17:40;9.30;99.90
42989;DHT22;28622;43.716;20.668;2023-03-21T02:20:20;9.20;99.90
42989;DHT22;28622;43.716;20.668;2023-03-21T02:36:25;9.00;99.90
42989;DHT22;28622;43.716;20.668;2023-03-21T02:41:44;9.00;99.90
42989;DHT22;28622;43.716;20.668;2023-03-21T02:47:10;8.90;99.90
42989;DHT22;28622;43.716;20.668;2023-03-21T02:52:50;8.80;99.90
42989;DHT22;28622;43.716;20.668;2023-03-21T02:55:24;8.70;99.90
42989;DHT22;28622;43.716;20.668;2023-03-21T02:57:51;8.70;99.90
42989;DHT22;28622;43.716;20.668;2023-03-21T03:00:25;8.60;99.90
42989;DHT22;28622;43.716;20.668;2023-03-21T03:02:51;8.70;99.90
42989;DHT22;28622;43.716;20.668;2023-03-21T03:05:30;8.60;99.90
42989;DHT22;28622;43.716;20.668;2023-03-21T03:19:10;8.60;99.90
42989;DHT22;28622;43.716;20.668;2023-03-21T03:21:46;8.60;99.90
42989;DHT22;28622;43.716;20.668;2023-03-21T03:24:37;8.50;99.90
42989;DHT22;28622;43.716;20.668;2023-03-21T03:27:16;8.50;99.90
42989;DHT22;28622;43.716;20.668;2023-03-21T03:29:45;8.50;99.90
42989;DHT22;28622;43.716;20.668;2023-03-21T03:32:14;8.40;99.90
42989;DHT22;28622;43.716;20.668;2023-03-21T03:34:45;8.40;99.90
42989;DHT22;28622;43.716;20.668;2023-03-21T03:37:23;8.30;99.90
42989;DHT22;28622;43.716;20.668;2023-03-21T03:42:43;8.00;99.90
42989;DHT22;28622;43.716;20.668;2023-03-21T03:45:11;8.00;99.90
42989;DHT22;28622;43.716;20.668;2023-03-21T03:52:42;7.90;99.90
42989;DHT22;28622;43.716;20.668;2023-03-21T03:55:11;7.90;99.90
42989;DHT22;28622;43.716;20.668;2023-03-21T03:57:38;7.80;99.90
42989;DHT22;28622;43.716;20.668;2023-03-21T04:00:05;7.80;99.90
42989;DHT22;28622;43.716;20.668;2023-03-21T04:02:36;7.70;99.90
42989;DHT22;28622;43.716;20.668;2023-03-21T04:05:02;7.80;99.90
42989;DHT22;28622;43.716;20.668;2023-03-21T04:07:28;7.80;99.90
42989;DHT22;28622;43.716;20.668;2023-03-21T04:09:54;7.80;99.90
42989;DHT22;28622;43.716;20.668;2023-03-21T04:12:20;7.80;99.90
42989;DHT22;28622;43.716;20.668;2023-03-21T04:14:46;7.80;99.90
42989;DHT22;28622;43.716;20.668;2023-03-21T04:17:12;7.80;99.90
42989;DHT22;28622;43.716;20.668;2023-03-21T04:19:37;7.80;99.90
42989;DHT22;28622;43.716;20.668;2023-03-21T04:22:03;7.80;99.90
42989;DHT22;28622;43.716;20.668;2023-03-21T04:24:29;7.90;99.90
42989;DHT22;28622;43.716;20.668;2023-03-21T04:26:58;8.00;99.90
42989;DHT22;28622;43.716;20.668;2023-03-21T04:29:25;8.10;99.90
42989;DHT22;28622;43.716;20.668;2023-03-21T04:31:55;8.10;99.90
42989;DHT22;28622;43.716;20.668;2023-03-21T04:34:21;8.20;99.90
42989;DHT22;28622;43.716;20.668;2023-03-21T04:36:51;8.30;99.90
42989;DHT22;28622;43.716;20.668;2023-03-21T04:39:19;8.30;99.90
42989;DHT22;28622;43.716;20.668;2023-03-21T04:41:45;8.30;99.90
42989;DHT22;28622;43.716;20.668;2023-03-21T04:44:12;8.40;99.90
42989;DHT22;28622;43.716;20.668;2023-03-21T04:46:39;8.40;99.90
42989;DHT22;28622;43.716;20.668;2023-03-21T04:49:05;8.50;99.90
42989;DHT22;28622;43.716;20.668;2023-03-21T04:51:34;8.50;99.90
42989;DHT22;28622;43.716;20.668;2023-03-21T04:54:00;8.60;99.90
42989;DHT22;28622;43.716;20.668;2023-03-21T04:56:27;8.60;99.90
42989;DHT22;28622;43.716;20.668;2023-03-21T04:58:58;8.60;99.90
42989;DHT22;28622;43.716;20.668;2023-03-21T05:01:25;8.60;99.90
42989;DHT22;28622;43.716;20.668;2023-03-21T05:03:59;8.60;99.90
42989;DHT22;28622;43.716;20.668;2023-03-21T05:06:25;8.60;99.90
42989;DHT22;28622;43.716;20.668;2023-03-21T05:08:56;8.60;99.90
42989;DHT22;28622;43.716;20.668;2023-03-21T05:11:28;8.60;99.90
42989;DHT22;28622;43.716;20.668;2023-03-21T05:13:57;8.50;99.90
42989;DHT22;28622;43.716;20.668;2023-03-21T05:16:24;8.50;99.90
42989;DHT22;28622;43.716;20.668;2023-03-21T05:18:52;8.50;99.90
42989;DHT22;28622;43.716;20.668;2023-03-21T05:21:20;8.50;99.90
42989;DHT22;28622;43.716;20.668;2023-03-21T05:23:46;8.50;99.90
42989;DHT22;28622;43.716;20.668;2023-03-21T05:26:19;8.50;99.90
42989;DHT22;28622;43.716;20.668;2023-03-21T05:28:46;8.50;99.90
42989;DHT22;28622;43.716;20.668;2023-03-21T05:31:13;8.60;99.90
42989;DHT22;28622;43.716;20.668;2023-03-21T05:33:42;8.70;99.90
42989;DHT22;28622;43.716;20.668;2023-03-21T05:36:08;8.70;99.90
42989;DHT22;28622;43.716;20.668;2023-03-21T05:38:34;8.80;99.90
42989;DHT22;28622;43.716;20.668;2023-03-21T05:41:00;8.80;99.90
42989;DHT22;28622;43.716;20.668;2023-03-21T05:43:26;8.90;99.90
42989;DHT22;28622;43.716;20.668;2023-03-21T05:45:51;8.90;99.90
42989;DHT22;28622;43.716;20.668;2023-03-21T05:48:17;9.00;99.90
42989;DHT22;28622;43.716;20.668;2023-03-21T05:50:44;9.00;99.90
42989;DHT22;28622;43.716;20.668;2023-03-21T05:53:11;9.10;99.90
42989;DHT22;28622;43.716;20.668;2023-03-21T05:55:37;9.10;99.90
42989;DHT22;28622;43.716;20.668;2023-03-21T05:58:03;9.20;99.90
42989;DHT22;28622;43.716;20.668;2023-03-21T06:00:28;9.20;99.90
42989;DHT22;28622;43.716;20.668;2023-03-21T06:02:54;9.30;99.90
42989;DHT22;28622;43.716;20.668;2023-03-21T06:05:20;9.30;99.90
42989;DHT22;28622;43.716;20.668;2023-03-21T06:07:46;9.40;99.90
42989;DHT22;28622;43.716;20.668;2023-03-21T06:10:12;9.50;99.90
42989;DHT22;28622;43.716;20.668;2023-03-21T06:12:38;9.60;99.90
42989;DHT22;28622;43.716;20.668;2023-03-21T06:15:05;9.60;99.90
42989;DHT22;28622;43.716;20.668;2023-03-21T06:17:33;9.60;99.90
42989;DHT22;28622;43.716;20.668;2023-03-21T06:19:59;9.70;99.90
42989;DHT22;28622;43.716;20.668;2023-03-21T06:22:30;9.70;99.90
42989;DHT22;28622;43.716;20.668;2023-03-21T06:24:56;9.70;99.90
42989;DHT22;28622;43.716;20.668;2023-03-21T06:27:22;9.80;99.90
42989;DHT22;28622;43.716;20.668;2023-03-21T06:29:48;9.90;99.90
42989;DHT22;28622;43.716;20.668;2023-03-21T06:32:13;10.00;99.90
42989;DHT22;28622;43.716;20.668;2023-03-21T06:34:40;10.10;99.90
42989;DHT22;28622;43.716;20.668;2023-03-21T06:37:06;10.10;99.90
42989;DHT22;28622;43.716;20.668;2023-03-21T06:39:32;10.20;99.90
42989;DHT22;28622;43.716;20.668;2023-03-21T06:41:59;10.30;99.90
42989;DHT22;28622;43.716;20.668;2023-03-21T06:44:25;10.40;99.90
42989;DHT22;28622;43.716;20.668;2023-03-21T06:46:51;10.50;99.90
42989;DHT22;28622;43.716;20.668;2023-03-21T06:49:17;10.50;99.90
42989;DHT22;28622;43.716;20.668;2023-03-21T06:51:44;10.60;99.90
42989;DHT22;28622;43.716;20.668;2023-03-21T06:54:10;10.70;99.90
42989;DHT22;28622;43.716;20.668;2023-03-21T06:56:36;10.80;99.90
42989;DHT22;28622;43.716;20.668;2023-03-21T06:59:02;10.70;99.90
42989;DHT22;28622;43.716;20.668;2023-03-21T07:01:28;10.90;99.90
42989;DHT22;28622;43.716;20.668;2023-03-21T07:03:55;11.00;99.90
42989;DHT22;28622;43.716;20.668;2023-03-21T07:06:24;11.00;99.90
42989;DHT22;28622;43.716;20.668;2023-03-21T07:08:53;11.00;99.90
42989;DHT22;28622;43.716;20.668;2023-03-21T07:11:20;11.00;99.90
42989;DHT22;28622;43.716;20.668;2023-03-21T07:13:46;11.10;99.90
42989;DHT22;28622;43.716;20.668;2023-03-21T07:16:16;11.20;99.90
42989;DHT22;28622;43.716;20.668;2023-03-21T07:18:43;11.20;99.90
42989;DHT22;28622;43.716;20.668;2023-03-21T07:21:09;11.30;99.90
42989;DHT22;28622;43.716;20.668;2023-03-21T07:23:35;11.30;99.90
42989;DHT22;28622;43.716;20.668;2023-03-21T07:26:03;11.40;99.90
42989;DHT22;28622;43.716;20.668;2023-03-21T07:28:29;11.40;99.90
42989;DHT22;28622;43.716;20.668;2023-03-21T07:31:01;11.40;99.90
42989;DHT22;28622;43.716;20.668;2023-03-21T07:33:29;11.40;99.90
42989;DHT22;28622;43.716;20.668;2023-03-21T07:35:56;11.60;99.90
42989;DHT22;28622;43.716;20.668;2023-03-21T07:38:22;11.60;99.90
42989;DHT22;28622;43.716;20.668;2023-03-21T07:40:48;11.70;99.90
42989;DHT22;28622;43.716;20.668;2023-03-21T07:43:15;11.70;99.90
42989;DHT22;28622;43.716;20.668;2023-03-21T07:45:41;11.80;99.90
42989;DHT22;28622;43.716;20.668;2023-03-21T07:48:07;11.80;99.90
42989;DHT22;28622;43.716;20.668;2023-03-21T07:50:33;11.80;99.90
42989;DHT22;28622;43.716;20.668;2023-03-21T07:52:59;11.90;99.90
42989;DHT22;28622;43.716;20.668;2023-03-21T07:55:26;12.00;99.90
42989;DHT22;28622;43.716;20.668;2023-03-21T07:57:52;12.00;99.90
42989;DHT22;28622;43.716;20.668;2023-03-21T08:00:19;12.00;99.90
42989;DHT22;28622;43.716;20.668;2023-03-21T08:02:50;12.10;99.90
42989;DHT22;28622;43.716;20.668;2023-03-21T08:05:23;12.20;99.90
42989;DHT22;28622;43.716;20.668;2023-03-21T08:07:49;12.30;99.90
42989;DHT22;28622;43.716;20.668;2023-03-21T08:10:15;12.40;99.90
42989;DHT22;28622;43.716;20.668;2023-03-21T08:12:42;12.50;99.90
42989;DHT22;28622;43.716;20.668;2023-03-21T08:15:08;12.70;99.90
42989;DHT22;28622;43.716;20.668;2023-03-21T08:17:34;12.80;99.90
42989;DHT22;28622;43.716;20.668;2023-03-21T08:20:03;13.00;99.90
42989;DHT22;28622;43.716;20.668;2023-03-21T08:22:32;12.90;99.90
42989;DHT22;28622;43.716;20.668;2023-03-21T08:24:58;13.00;99.90
42989;DHT22;28622;43.716;20.668;2023-03-21T08:27:24;13.10;99.90
42989;DHT22;28622;43.716;20.668;2023-03-21T08:29:50;13.30;99.90
42989;DHT22;28622;43.716;20.668;2023-03-21T08:32:17;13.50;99.90
42989;DHT22;28622;43.716;20.668;2023-03-21T08:34:44;13.60;99.90
42989;DHT22;28622;43.716;20.668;2023-03-21T08:37:09;13.70;99.90
42989;DHT22;28622;43.716;20.668;2023-03-21T08:39:35;13.80;99.90
42989;DHT22;28622;43.716;20.668;2023-03-21T08:42:02;13.90;99.90
42989;DHT22;28622;43.716;20.668;2023-03-21T08:46:54;14.20;99.90
42989;DHT22;28622;43.716;20.668;2023-03-21T08:49:20;14.40;99.90
42989;DHT22;28622;43.716;20.668;2023-03-21T08:51:45;14.60;99.90
42989;DHT22;28622;43.716;20.668;2023-03-21T08:54:21;14.70;99.90
42989;DHT22;28622;43.716;20.668;2023-03-21T08:56:47;14.60;99.90
42989;DHT22;28622;43.716;20.668;2023-03-21T08:59:13;14.90;99.90
42989;DHT22;28622;43.716;20.668;2023-03-21T09:01:39;15.00;99.90
42989;DHT22;28622;43.716;20.668;2023-03-21T09:04:05;15.00;99.90
42989;DHT22;28622;43.716;20.668;2023-03-21T09:06:32;14.90;99.90
42989;DHT22;28622;43.716;20.668;2023-03-21T09:08:58;15.00;99.90
42989;DHT22;28622;43.716;20.668;2023-03-21T09:11:24;15.20;99.90
42989;DHT22;28622;43.716;20.668;2023-03-21T09:13:50;15.30;99.90
42989;DHT22;28622;43.716;20.668;2023-03-21T09:16:16;15.40;99.90
42989;DHT22;28622;43.716;20.668;2023-03-21T09:18:42;15.60;99.90
42989;DHT22;28622;43.716;20.668;2023-03-21T09:21:15;15.70;99.00
42989;DHT22;28622;43.716;20.668;2023-03-21T09:23:41;15.90;98.00
42989;DHT22;28622;43.716;20.668;2023-03-21T09:26:09;15.80;97.50
42989;DHT22;28622;43.716;20.668;2023-03-21T09:28:35;15.90;98.30
42989;DHT22;28622;43.716;20.668;2023-03-21T09:31:05;16.00;97.60
42989;DHT22;28622;43.716;20.668;2023-03-21T09:33:33;15.90;96.50
42989;DHT22;28622;43.716;20.668;2023-03-21T09:36:00;16.00;96.70
42989;DHT22;28622;43.716;20.668;2023-03-21T09:38:26;16.20;96.90
42989;DHT22;28622;43.716;20.668;2023-03-21T09:52:23;17.20;95.20
42989;DHT22;28622;43.716;20.668;2023-03-21T09:54:53;17.40;94.80
42989;DHT22;28622;43.716;20.668;2023-03-21T09:57:41;17.60;94.40
42989;DHT22;28622;43.716;20.668;2023-03-21T10:00:16;17.90;94.10
42989;DHT22;28622;43.716;20.668;2023-03-21T10:02:51;18.10;93.40
42989;DHT22;28622;43.716;20.668;2023-03-21T10:05:27;18.40;92.50
42989;DHT22;28622;43.716;20.668;2023-03-21T10:10:39;18.60;92.00
42989;DHT22;28622;43.716;20.668;2023-03-21T10:13:18;18.60;92.10
42989;DHT22;28622;43.716;20.668;2023-03-21T10:15:45;18.60;91.20
42989;DHT22;28622;43.716;20.668;2023-03-21T10:20:49;18.00;90.90
42989;DHT22;28622;43.716;20.668;2023-03-21T10:23:18;17.80;91.90
42989;DHT22;28622;43.716;20.668;2023-03-21T10:25:49;17.90;91.40
42989;DHT22;28622;43.716;20.668;2023-03-21T10:28:21;17.90;91.00
42989;DHT22;28622;43.716;20.668;2023-03-21T10:30:50;17.70;92.00
42989;DHT22;28622;43.716;20.668;2023-03-21T10:33:25;18.00;91.60
42989;DHT22;28622;43.716;20.668;2023-03-21T10:35:58;18.50;91.10
42989;DHT22;28622;43.716;20.668;2023-03-21T10:38:25;19.00;90.50
42989;DHT22;28622;43.716;20.668;2023-03-21T10:40:52;18.90;90.20
42989;DHT22;28622;43.716;20.668;2023-03-21T10:45:51;18.50;89.90
42989;DHT22;28622;43.716;20.668;2023-03-21T10:48:17;18.70;90.10
42989;DHT22;28622;43.716;20.668;2023-03-21T10:50:46;19.10;90.20
42989;DHT22;28622;43.716;20.668;2023-03-21T10:53:22;18.90;88.10
42989;DHT22;28622;43.716;20.668;2023-03-21T10:55:51;18.60;88.70
42989;DHT22;28622;43.716;20.668;2023-03-21T10:58:21;18.60;89.10
42989;DHT22;28622;43.716;20.668;2023-03-21T11:01:00;18.40;89.30
42989;DHT22;28622;43.716;20.668;2023-03-21T11:04:04;18.10;88.80
42989;DHT22;28622;43.716;20.668;2023-03-21T11:06:30;18.10;90.70
42989;DHT22;28622;43.716;20.668;2023-03-21T11:09:23;18.30;90.30
42989;DHT22;28622;43.716;20.668;2023-03-21T11:12:11;18.40;90.40
42989;DHT22;28622;43.716;20.668;2023-03-21T11:14:48;18.80;88.80
42989;DHT22;28622;43.716;20.668;2023-03-21T11:17:19;18.30;87.00
42989;DHT22;28622;43.716;20.668;2023-03-21T11:22:14;18.40;89.70
42989;DHT22;28622;43.716;20.668;2023-03-21T11:24:42;18.60;88.20
42989;DHT22;28622;43.716;20.668;2023-03-21T11:27:12;18.70;88.20
42989;DHT22;28622;43.716;20.668;2023-03-21T11:29:38;18.90;87.10
42989;DHT22;28622;43.716;20.668;2023-03-21T11:34:48;18.90;87.80
42989;DHT22;28622;43.716;20.668;2023-03-21T11:39:45;19.00;87.10
42989;DHT22;28622;43.716;20.668;2023-03-21T11:42:29;18.80;87.90
42989;DHT22;28622;43.716;20.668;2023-03-21T11:47:53;18.80;88.70
42989;DHT22;28622;43.716;20.668;2023-03-21T11:53:09;18.80;87.30
42989;DHT22;28622;43.716;20.668;2023-03-21T12:09:42;18.60;87.60
42989;DHT22;28622;43.716;20.668;2023-03-21T12:26:05;19.40;85.00
42989;DHT22;28622;43.716;20.668;2023-03-21T12:36:57;19.70;82.60
42989;DHT22;28622;43.716;20.668;2023-03-21T12:39:29;19.60;82.90
42989;DHT22;28622;43.716;20.668;2023-03-21T12:42:47;19.70;83.80
42989;DHT22;28622;43.716;20.668;2023-03-21T12:44:53;19.90;82.50
42989;DHT22;28622;43.716;20.668;2023-03-21T12:47:23;20.00;82.50
42989;DHT22;28622;43.716;20.668;2023-03-21T12:50:04;19.70;83.10
42989;DHT22;28622;43.716;20.668;2023-03-21T12:52:40;19.80;82.70
42989;DHT22;28622;43.716;20.668;2023-03-21T12:55:18;20.00;82.90
42989;DHT22;28622;43.716;20.668;2023-03-21T12:57:49;19.50;80.90
42989;DHT22;28622;43.716;20.668;2023-03-21T13:00:37;19.80;84.60
42989;DHT22;28622;43.716;20.668;2023-03-21T13:03:28;19.60;80.60
42989;DHT22;28622;43.716;20.668;2023-03-21T13:06:03;19.50;82.30
42989;DHT22;28622;43.716;20.668;2023-03-21T13:08:55;19.30;82.60
42989;DHT22;28622;43.716;20.668;2023-03-21T13:11:26;19.10;82.40
42989;DHT22;28622;43.716;20.668;2023-03-21T13:13:56;19.10;82.80
42989;DHT22;28622;43.716;20.668;2023-03-21T13:16:28;19.30;83.50
42989;DHT22;28622;43.716;20.668;2023-03-21T13:19:04;19.50;82.50
42989;DHT22;28622;43.716;20.668;2023-03-21T13:21:52;19.40;84.10
42989;DHT22;28622;43.716;20.668;2023-03-21T13:24:27;19.90;83.50
42989;DHT22;28622;43.716;20.668;2023-03-21T13:29:57;20.40;80.80
42989;DHT22;28622;43.716;20.668;2023-03-21T13:32:44;20.70;80.40
42989;DHT22;28622;43.716;20.668;2023-03-21T13:35:32;20.40;78.50
42989;DHT22;28622;43.716;20.668;2023-03-21T13:38:05;19.80;80.40
42989;DHT22;28622;43.716;20.668;2023-03-21T13:40:39;19.70;82.50
42989;DHT22;28622;43.716;20.668;2023-03-21T13:51:55;19.10;84.10
42989;DHT22;28622;43.716;20.668;2023-03-21T13:54:44;19.00;83.70
42989;DHT22;28622;43.716;20.668;2023-03-21T13:57:41;18.90;83.50
42989;DHT22;28622;43.716;20.668;2023-03-21T14:00:26;18.70;84.50
42989;DHT22;28622;43.716;20.668;2023-03-21T14:02:58;18.60;85.30
42989;DHT22;28622;43.716;20.668;2023-03-21T14:05:26;18.60;84.70
42989;DHT22;28622;43.716;20.668;2023-03-21T14:07:57;18.50;85.20
42989;DHT22;28622;43.716;20.668;2023-03-21T14:10:46;18.50;84.70
42989;DHT22;28622;43.716;20.668;2023-03-21T14:13:19;18.30;85.40
42989;DHT22;28622;43.716;20.668;2023-03-21T14:15:49;18.30;85.90
42989;DHT22;28622;43.716;20.668;2023-03-21T14:18:22;18.20;85.30
42989;DHT22;28622;43.716;20.668;2023-03-21T14:20:57;18.10;85.70
42989;DHT22;28622;43.716;20.668;2023-03-21T14:23:25;18.00;86.10
42989;DHT22;28622;43.716;20.668;2023-03-21T14:25:51;18.00;86.10
42989;DHT22;28622;43.716;20.668;2023-03-21T14:28:23;18.10;87.00
42989;DHT22;28622;43.716;20.668;2023-03-21T14:30:53;17.90;86.70
42989;DHT22;28622;43.716;20.668;2023-03-21T14:33:38;18.00;86.60
42989;DHT22;28622;43.716;20.668;2023-03-21T14:36:11;17.90;86.80
42989;DHT22;28622;43.716;20.668;2023-03-21T14:38:39;17.80;87.20
42989;DHT22;28622;43.716;20.668;2023-03-21T14:41:20;17.70;87.50
42989;DHT22;28622;43.716;20.668;2023-03-21T14:44:16;17.70;87.90
42989;DHT22;28622;43.716;20.668;2023-03-21T14:46:47;17.60;88.00
42989;DHT22;28622;43.716;20.668;2023-03-21T14:49:34;17.60;87.80
42989;DHT22;28622;43.716;20.668;2023-03-21T14:52:02;17.50;87.60
42989;DHT22;28622;43.716;20.668;2023-03-21T14:54:29;17.50;88.30
42989;DHT22;28622;43.716;20.668;2023-03-21T14:57:01;17.50;88.30
42989;DHT22;28622;43.716;20.668;2023-03-21T14:59:34;17.40;89.70
42989;DHT22;28622;43.716;20.668;2023-03-21T15:02:04;17.40;89.20
42989;DHT22;28622;43.716;20.668;2023-03-21T15:04:31;17.40;89.10
42989;DHT22;28622;43.716;20.668;2023-03-21T15:07:01;17.40;89.30
42989;DHT22;28622;43.716;20.668;2023-03-21T15:09:32;17.40;89.40
42989;DHT22;28622;43.716;20.668;2023-03-21T15:11:59;17.30;90.00
42989;DHT22;28622;43.716;20.668;2023-03-21T15:14:33;17.30;89.90
42989;DHT22;28622;43.716;20.668;2023-03-21T15:17:01;17.30;90.00
42989;DHT22;28622;43.716;20.668;2023-03-21T15:19:32;17.20;90.60
42989;DHT22;28622;43.716;20.668;2023-03-21T15:22:07;17.10;90.80
42989;DHT22;28622;43.716;20.668;2023-03-21T15:24:40;17.10;91.40
42989;DHT22;28622;43.716;20.668;2023-03-21T15:27:13;17.00;90.80
42989;DHT22;28622;43.716;20.668;2023-03-21T15:29:39;17.00;91.20
42989;DHT22;28622;43.716;20.668;2023-03-21T15:32:12;16.90;92.60
42989;DHT22;28622;43.716;20.668;2023-03-21T15:34:38;16.80;92.70
42989;DHT22;28622;43.716;20.668;2023-03-21T15:37:06;16.70;92.40
42989;DHT22;28622;43.716;20.668;2023-03-21T15:39:32;16.60;92.90
42989;DHT22;28622;43.716;20.668;2023-03-21T15:42:02;16.60;92.70
42989;DHT22;28622;43.716;20.668;2023-03-21T15:44:28;16.60;92.70
42989;DHT22;28622;43.716;20.668;2023-03-21T15:46:55;16.60;92.60
42989;DHT22;28622;43.716;20.668;2023-03-21T15:49:31;16.50;93.10
42989;DHT22;28622;43.716;20.668;2023-03-21T15:54:43;16.40;93.40
42989;DHT22;28622;43.716;20.668;2023-03-21T15:57:29;16.30;93.80
42989;DHT22;28622;43.716;20.668;2023-03-21T16:02:44;16.10;93.30
42989;DHT22;28622;43.716;20.668;2023-03-21T16:05:30;16.10;94.20
42989;DHT22;28622;43.716;20.668;2023-03-21T16:08:21;15.90;94.20
42989;DHT22;28622;43.716;20.668;2023-03-21T16:10:50;16.00;94.80
42989;DHT22;28622;43.716;20.668;2023-03-21T16:13:18;16.00;95.10
42989;DHT22;28622;43.716;20.668;2023-03-21T16:15:44;16.00;96.00
42989;DHT22;28622;43.716;20.668;2023-03-21T16:18:14;16.00;96.50
42989;DHT22;28622;43.716;20.668;2023-03-21T16:20:42;16.00;96.00
42989;DHT22;28622;43.716;20.668;2023-03-21T16:23:10;16.00;96.70
42989;DHT22;28622;43.716;20.668;2023-03-21T16:25:36;15.90;97.70
42989;DHT22;28622;43.716;20.668;2023-03-21T16:28:02;15.80;96.70
42989;DHT22;28622;43.716;20.668;2023-03-21T16:30:30;15.80;96.90
42989;DHT22;28622;43.716;20.668;2023-03-21T16:32:55;15.80;97.60
42989;DHT22;28622;43.716;20.668;2023-03-21T16:35:21;15.80;96.90
42989;DHT22;28622;43.716;20.668;2023-03-21T16:37:49;15.70;97.00
42989;DHT22;28622;43.716;20.668;2023-03-21T16:40:27;15.70;97.70
42989;DHT22;28622;43.716;20.668;2023-03-21T16:42:54;15.60;96.80
42989;DHT22;28622;43.716;20.668;2023-03-21T16:45:19;15.60;96.70
42989;DHT22;28622;43.716;20.668;2023-03-21T16:47:45;15.50;97.30
42989;DHT22;28622;43.716;20.668;2023-03-21T16:52:46;15.20;97.70
42989;DHT22;28622;43.716;20.668;2023-03-21T16:55:12;15.20;98.30
42989;DHT22;28622;43.716;20.668;2023-03-21T16:57:38;15.10;98.70
42989;DHT22;28622;43.716;20.668;2023-03-21T17:00:05;15.00;99.60
42989;DHT22;28622;43.716;20.668;2023-03-21T17:02:32;14.90;99.90
42989;DHT22;28622;43.716;20.668;2023-03-21T17:04:57;14.80;99.90
42989;DHT22;28622;43.716;20.668;2023-03-21T17:07:23;14.70;99.90
42989;DHT22;28622;43.716;20.668;2023-03-21T17:09:49;14.70;99.90
42989;DHT22;28622;43.716;20.668;2023-03-21T17:12:15;14.60;99.90
42989;DHT22;28622;43.716;20.668;2023-03-21T17:14:43;14.50;99.90
42989;DHT22;28622;43.716;20.668;2023-03-21T17:17:10;14.50;99.90
42989;DHT22;28622;43.716;20.668;2023-03-21T17:19:37;14.40;99.90
42989;DHT22;28622;43.716;20.668;2023-03-21T17:22:03;14.40;99.90
42989;DHT22;28622;43.716;20.668;2023-03-21T17:24:29;14.40;99.90
42989;DHT22;28622;43.716;20.668;2023-03-21T17:26:55;14.40;99.90
42989;DHT22;28622;43.716;20.668;2023-03-21T17:29:21;14.40;99.90
42989;DHT22;28622;43.716;20.668;2023-03-21T17:31:46;14.30;99.90
42989;DHT22;28622;43.716;20.668;2023-03-21T17:34:15;14.30;99.90
42989;DHT22;28622;43.716;20.668;2023-03-21T17:36:42;14.20;99.90
42989;DHT22;28622;43.716;20.668;2023-03-21T17:39:23;14.10;99.90
42989;DHT22;28622;43.716;20.668;2023-03-21T17:41:50;14.10;99.90
42989;DHT22;28622;43.716;20.668;2023-03-21T17:44:17;14.00;99.90
42989;DHT22;28622;43.716;20.668;2023-03-21T17:46:43;14.00;99.90
42989;DHT22;28622;43.716;20.668;2023-03-21T17:49:12;14.00;99.90
42989;DHT22;28622;43.716;20.668;2023-03-21T17:51:38;14.00;99.90